AOO weather

Altoona Blair County Airport
Altoona, Pennsylvania, United States

Public forecast

Using degrees Fahrenheit for public forecast. Weather courtesy of forecast.io.

Current aviation weather report (METAR) for Altoona Blair County Airport

Retrieved 2019/12/09 00:53 UTC (1 hour ago):

KAOO 090053Z AUTO 19007KT 150V220 10SM OVC060 03/M08 A3021 RMK AO2 SLP247 T00331078

Aviation forecast (TAF) for Altoona Blair County Airport

Retrieved 2019-12-09 00:03 UTC (2 hours ago):

TAF KAOO 082359Z 0900/0924 17006KT P6SM BKN050 FM091200 18008KT 6SM -RA OVC025 FM091500 18007KT 3SM -RA BR OVC008 WS020/20035KT FM091700 18007KT 2SM -RA BR OVC006 WS020/20035KT